Alondra — 3FCU — position and weather

sailwx.info

Track history (hours):
 
Tides and Currents Weather Stations Pressure Air Temp Water Temp Dewpoint Dewpoint Depression Visibility Wind Speed Wind Dir Waves Ship Positions

Alondra

Last reported at 2018-Feb-20 16:26 UTC. Time now 2018-Feb-22 19:13 UTC.
Position N 36°19' E 014°48'.

Length 97 m; draft 4 m.

Type: Cargo ship. MMSI: 236404000.

Date/timePositionNaut miles runAvg speedWind from/ knotsBaromVisibWave heightAir tempDewpointWater temp
2018-Feb-20 16:26N 36°19' E 014°48'613.9
2018-Feb-20 16:00N 36°21' E 014°41'714.0
2018-Feb-20 15:30N 36°24' E 014°33'713.8
2018-Feb-20 14:58N 36°26' E 014°24'713.9
2018-Feb-20 14:29N 36°28' E 014°16'713.9
2018-Feb-20 14:00N 36°30' E 014°09'  
2018-Feb-14 21:19N 36°28' W 023°25'513.8
2018-Feb-14 20:59N 36°28' W 023°31'714.1
2018-Feb-14 20:30N 36°28' W 023°39'714.0
2018-Feb-14 20:00N 36°28' W 023°48'713.9
2018-Feb-14 19:31N 36°29' W 023°57'713.8
2018-Feb-14 19:00N 36°29' W 024°05'713.7
2018-Feb-14 18:30N 36°29' W 024°14'713.6
2018-Feb-14 18:00N 36°29' W 024°22'713.4
2018-Feb-14 17:31N 36°30' W 024°31'713.7
2018-Feb-14 17:00N 36°30' W 024°39'713.6
2018-Feb-14 16:30N 36°30' W 024°48'713.4
2018-Feb-14 16:00N 36°31' W 024°56'713.6
2018-Feb-14 15:30N 36°31' W 025°04'713.3
2018-Feb-14 15:00N 36°32' W 025°12'713.5
2018-Feb-14 14:31N 36°35' W 025°20'713.7
2018-Feb-14 14:00N 36°37' W 025°29'713.6
2018-Feb-14 13:30N 36°39' W 025°37'713.9
2018-Feb-14 13:00N 36°41' W 025°45'713.6
2018-Feb-14 12:30N 36°43' W 025°53'713.5
2018-Feb-14 12:00N 36°44' W 026°01'713.8
2018-Feb-14 11:31N 36°46' W 026°10'713.4
2018-Feb-14 10:58N 36°48' W 026°18'4213.6
2018-Feb-14 07:52N 36°59' W 027°09'613.5
2018-Feb-14 07:27N 37°01' W 027°16'713.7
2018-Feb-14 06:56N 37°03' W 027°24'613.4
2018-Feb-14 06:30N 37°04' W 027°31'713.5
2018-Feb-14 06:00N 37°06' W 027°39'713.5
2018-Feb-14 05:30N 37°07' W 027°48'713.4
2018-Feb-14 05:00N 37°09' W 027°56'713.6
2018-Feb-14 04:31N 37°11' W 028°04'713.8
2018-Feb-14 04:00N 37°13' W 028°12'713.5
2018-Feb-14 03:28N 37°14' W 028°21'613.6
2018-Feb-14 03:00N 37°16' W 028°29'713.7
2018-Feb-14 02:31N 37°17' W 028°37'713.7
2018-Feb-14 02:00N 37°19' W 028°46'713.6
2018-Feb-14 01:30N 37°21' W 028°54'713.4
2018-Feb-14 01:01N 37°22' W 029°02'1213.4
2018-Feb-14 00:07N 37°25' W 029°17'213.3
2018-Feb-13 23:58N 37°25' W 029°19'613.5
2018-Feb-13 23:31N 37°27' W 029°27'713.4
2018-Feb-13 23:00N 37°28' W 029°35'713.5
2018-Feb-13 22:30N 37°30' W 029°43'714.0
2018-Feb-13 22:00N 37°32' W 029°52'1014.0
2018-Feb-13 21:17N 37°34' W 030°04'713.5
2018-Feb-13 20:46N 37°36' W 030°13'413.2
2018-Feb-13 20:29N 37°37' W 030°17'813.7
2018-Feb-13 19:56N 37°38' W 030°27'713.6
2018-Feb-13 19:23N 37°40' W 030°36'1213.4
2018-Feb-13 18:30N 37°43' W 030°50'813.5
2018-Feb-13 17:56N 37°45' W 030°60'1313.3
2018-Feb-13 16:55N 37°47' W 031°16'  
Track history (hours):
 
Tides and Currents Weather Stations Pressure Air Temp Water Temp Dewpoint Dewpoint Depression Visibility Wind Speed Wind Dir Waves Ship Positions

Alondra

Last reported at 2018-Feb-20 16:26 UTC. Time now 2018-Feb-22 19:13 UTC.
Position N 36°19' E 014°48'.

Length 97 m; draft 4 m.

Type: Cargo ship. MMSI: 236404000.

Date/timePositionNaut miles runAvg speedWind from/ knotsBaromVisibWave heightAir tempDewpointWater temp
2018-Feb-20 16:26N 36°19' E 014°48'613.9
2018-Feb-20 16:00N 36°21' E 014°41'714.0
2018-Feb-20 15:30N 36°24' E 014°33'713.8
2018-Feb-20 14:58N 36°26' E 014°24'713.9
2018-Feb-20 14:29N 36°28' E 014°16'713.9
2018-Feb-20 14:00N 36°30' E 014°09'  
2018-Feb-14 21:19N 36°28' W 023°25'513.8
2018-Feb-14 20:59N 36°28' W 023°31'714.1
2018-Feb-14 20:30N 36°28' W 023°39'714.0
2018-Feb-14 20:00N 36°28' W 023°48'713.9
2018-Feb-14 19:31N 36°29' W 023°57'713.8
2018-Feb-14 19:00N 36°29' W 024°05'713.7
2018-Feb-14 18:30N 36°29' W 024°14'713.6
2018-Feb-14 18:00N 36°29' W 024°22'713.4
2018-Feb-14 17:31N 36°30' W 024°31'713.7
2018-Feb-14 17:00N 36°30' W 024°39'713.6
2018-Feb-14 16:30N 36°30' W 024°48'713.4
2018-Feb-14 16:00N 36°31' W 024°56'713.6
2018-Feb-14 15:30N 36°31' W 025°04'713.3
2018-Feb-14 15:00N 36°32' W 025°12'713.5
2018-Feb-14 14:31N 36°35' W 025°20'713.7
2018-Feb-14 14:00N 36°37' W 025°29'713.6
2018-Feb-14 13:30N 36°39' W 025°37'713.9
2018-Feb-14 13:00N 36°41' W 025°45'713.6
2018-Feb-14 12:30N 36°43' W 025°53'713.5
2018-Feb-14 12:00N 36°44' W 026°01'713.8
2018-Feb-14 11:31N 36°46' W 026°10'713.4
2018-Feb-14 10:58N 36°48' W 026°18'4213.6
2018-Feb-14 07:52N 36°59' W 027°09'613.5
2018-Feb-14 07:27N 37°01' W 027°16'713.7
2018-Feb-14 06:56N 37°03' W 027°24'613.4
2018-Feb-14 06:30N 37°04' W 027°31'713.5
2018-Feb-14 06:00N 37°06' W 027°39'713.5
2018-Feb-14 05:30N 37°07' W 027°48'713.4
2018-Feb-14 05:00N 37°09' W 027°56'713.6
2018-Feb-14 04:31N 37°11' W 028°04'713.8
2018-Feb-14 04:00N 37°13' W 028°12'713.5
2018-Feb-14 03:28N 37°14' W 028°21'613.6
2018-Feb-14 03:00N 37°16' W 028°29'713.7
2018-Feb-14 02:31N 37°17' W 028°37'713.7
2018-Feb-14 02:00N 37°19' W 028°46'713.6
2018-Feb-14 01:30N 37°21' W 028°54'713.4
2018-Feb-14 01:01N 37°22' W 029°02'1213.4
2018-Feb-14 00:07N 37°25' W 029°17'213.3
2018-Feb-13 23:58N 37°25' W 029°19'613.5
2018-Feb-13 23:31N 37°27' W 029°27'713.4
2018-Feb-13 23:00N 37°28' W 029°35'713.5
2018-Feb-13 22:30N 37°30' W 029°43'714.0
2018-Feb-13 22:00N 37°32' W 029°52'1014.0
2018-Feb-13 21:17N 37°34' W 030°04'713.5
2018-Feb-13 20:46N 37°36' W 030°13'413.2
2018-Feb-13 20:29N 37°37' W 030°17'813.7
2018-Feb-13 19:56N 37°38' W 030°27'713.6
2018-Feb-13 19:23N 37°40' W 030°36'1213.4
2018-Feb-13 18:30N 37°43' W 030°50'813.5
2018-Feb-13 17:56N 37°45' W 030°60'1313.3
2018-Feb-13 16:55N 37°47' W 031°16'  

Dump ship's entire track history